Time;durP1;ratioP1;P1;durP2;ratioP2;P2;SDS_P1;SDS_P2;PMS_P1;PMS_P2;Temp;Humidity;BMP_temperature;BMP_pressure;BME280_temperature;BME280_humidity;BME280_pressure;Samples;Min_cycle;Max_cycle;Signal;HPM_P1;HPM_P2
2021/12/21 00:01:24;;;;;;;30.67;11.17;;;3.80;49.50;;;;;;5045810;28;20471;-90
2021/12/21 00:03:51;;;;;;;20.60;10.50;;;3.80;49.30;;;;;;5080280;28;20446;-88
2021/12/21 00:06:18;;;;;;;16.17;8.27;;;3.80;49.10;;;;;;5076666;28;21009;-89
2021/12/21 00:08:45;;;;;;;22.23;10.63;;;3.80;48.90;;;;;;5076304;28;20461;-88
2021/12/21 00:11:14;;;;;;;21.23;10.07;;;3.80;48.70;;;;;;5075111;28;20502;-90
2021/12/21 00:13:59;;;;;;;19.70;8.80;;;3.80;49.10;;;;;;5079149;28;21025;-87
2021/12/21 00:16:46;;;;;;;24.43;10.47;;;3.80;49.10;;;;;;5047950;28;20536;-90
2021/12/21 00:19:36;;;;;;;18.37;11.37;;;3.80;49.00;;;;;;5086381;28;20444;-89
2021/12/21 00:22:11;;;;;;;18.60;8.57;;;3.70;48.90;;;;;;5096845;28;20514;-89
2021/12/21 00:24:45;;;;;;;20.30;8.13;;;3.80;48.80;;;;;;5050909;28;20455;-89
2021/12/21 00:27:15;;;;;;;19.23;9.20;;;3.60;48.90;;;;;;5074292;28;20766;-86
2021/12/21 00:29:42;;;;;;;19.17;9.47;;;3.60;49.60;;;;;;5076642;28;20504;-89
2021/12/21 00:32:10;;;;;;;14.83;8.57;;;3.50;50.00;;;;;;5092553;28;20505;-90
2021/12/21 00:34:37;;;;;;;26.23;10.27;;;3.50;50.00;;;;;;5064920;28;20744;-88
2021/12/21 00:37:05;;;;;;;14.30;8.07;;;3.50;49.90;;;;;;5076357;28;21060;-88
2021/12/21 00:39:32;;;;;;;20.47;7.87;;;3.50;49.90;;;;;;5057984;28;20456;-90
2021/12/21 00:41:59;;;;;;;14.50;7.07;;;3.50;49.50;;;;;;5059860;28;21009;-89
2021/12/21 00:44:27;;;;;;;10.67;7.10;;;3.50;49.10;;;;;;5043805;28;20452;-89
2021/12/21 00:46:54;;;;;;;9.20;6.50;;;3.50;48.80;;;;;;5063561;28;20466;-89
2021/12/21 00:49:23;;;;;;;10.60;7.27;;;3.50;48.80;;;;;;5062761;28;20891;-89
2021/12/21 00:51:50;;;;;;;13.40;6.87;;;3.50;49.00;;;;;;5059288;28;20554;-91
2021/12/21 00:54:17;;;;;;;12.60;4.90;;;3.50;48.80;;;;;;5094541;28;20455;-88
2021/12/21 00:56:45;;;;;;;10.87;5.20;;;3.50;48.60;;;;;;5059497;28;20474;-90
2021/12/21 00:59:12;;;;;;;11.83;6.30;;;3.50;48.50;;;;;;5069262;27;20972;-88
2021/12/21 01:01:42;;;;;;;13.40;7.10;;;3.50;48.40;;;;;;5076235;28;20483;-89
2021/12/21 01:04:18;;;;;;;9.40;5.70;;;3.50;48.50;;;;;;5085244;28;20720;-89
2021/12/21 01:06:58;;;;;;;10.73;6.50;;;3.50;48.50;;;;;;5076184;28;20923;-89
2021/12/21 01:09:47;;;;;;;12.43;6.90;;;3.40;48.40;;;;;;5090921;28;20506;-90
2021/12/21 01:12:19;;;;;;;15.00;7.50;;;3.40;48.50;;;;;;5079694;28;20467;-89
2021/12/21 01:15:04;;;;;;;9.83;7.10;;;3.40;48.40;;;;;;5077290;28;20496;-91
2021/12/21 01:17:48;;;;;;;12.23;8.03;;;3.40;49.30;;;;;;5091288;28;20513;-90
2021/12/21 01:20:27;;;;;;;12.83;7.20;;;3.40;49.70;;;;;;5063069;28;20462;-88
2021/12/21 01:23:12;;;;;;;12.23;6.50;;;3.40;49.90;;;;;;5072250;27;20904;-89
2021/12/21 01:25:45;;;;;;;19.87;7.63;;;3.30;50.00;;;;;;5092494;28;20463;-86
2021/12/21 01:28:18;;;;;;;18.10;8.27;;;3.20;50.60;;;;;;5066453;28;20637;-90
2021/12/21 01:30:53;;;;;;;12.30;8.03;;;3.10;51.20;;;;;;5073177;28;20485;-88
2021/12/21 01:33:37;;;;;;;19.30;7.00;;;3.00;51.50;;;;;;5073809;28;20481;-89
2021/12/21 01:36:13;;;;;;;14.80;7.00;;;3.00;51.70;;;;;;5065532;28;20450;-89
2021/12/21 01:38:49;;;;;;;12.03;6.90;;;2.80;52.30;;;;;;5093583;28;20463;-88
2021/12/21 01:41:26;;;;;;;15.93;8.27;;;2.80;52.70;;;;;;5065416;28;20477;-87
2021/12/21 01:44:03;;;;;;;35.40;8.57;;;2.80;53.20;;;;;;5074503;28;20738;-90
2021/12/21 01:52:01;;;;;;;13.87;9.20;;;2.90;52.90;;;;;;5075866;28;20482;-89
2021/12/21 01:54:28;;;;;;;16.03;8.80;;;3.00;52.10;;;;;;5092098;28;20807;-89
2021/12/21 01:56:55;;;;;;;27.33;9.90;;;3.00;52.00;;;;;;5075093;28;20467;-89
2021/12/21 01:59:22;;;;;;;21.83;10.73;;;3.00;51.80;;;;;;5076691;28;20654;-88
2021/12/21 02:01:54;;;;;;;17.43;9.50;;;3.00;51.60;;;;;;5091756;28;20540;-89
2021/12/21 02:04:22;;;;;;;29.97;9.63;;;2.80;51.80;;;;;;5089717;27;20452;-89
2021/12/21 02:06:49;;;;;;;15.03;8.63;;;2.60;52.20;;;;;;5076654;28;20464;-89
2021/12/21 02:09:19;;;;;;;21.17;9.60;;;2.40;52.00;;;;;;5077149;28;20455;-89
2021/12/21 02:11:47;;;;;;;19.17;8.47;;;2.30;52.80;;;;;;5049435;28;20467;-88
2021/12/21 02:14:14;;;;;;;17.27;9.47;;;2.30;52.90;;;;;;5061214;28;20447;-87
2021/12/21 02:16:52;;;;;;;11.43;6.80;;;2.40;52.80;;;;;;5050939;28;20458;-89
2021/12/21 02:19:24;;;;;;;12.87;7.20;;;2.50;51.80;;;;;;5072345;28;20969;-91
2021/12/21 02:21:56;;;;;;;12.53;7.20;;;2.60;51.10;;;;;;5047799;28;20478;-90
2021/12/21 02:24:28;;;;;;;14.83;6.10;;;2.70;50.60;;;;;;5053538;28;20462;-89
2021/12/21 02:27:06;;;;;;;12.50;7.13;;;2.70;50.30;;;;;;5059447;28;20469;-90
2021/12/21 02:29:35;;;;;;;16.97;6.50;;;2.80;50.10;;;;;;5063850;28;20806;-91
2021/12/21 02:32:04;;;;;;;16.70;6.60;;;2.90;49.90;;;;;;5093329;28;20483;-89
2021/12/21 02:34:31;;;;;;;11.70;6.53;;;2.90;50.10;;;;;;5091261;28;20989;-88
2021/12/21 02:36:59;;;;;;;11.67;6.50;;;2.90;50.30;;;;;;5074171;28;20825;-88
2021/12/21 02:39:27;;;;;;;9.87;5.33;;;2.90;50.30;;;;;;5057970;28;20459;-90
2021/12/21 02:41:54;;;;;;;8.63;5.87;;;2.80;50.00;;;;;;5093754;28;20470;-90
2021/12/21 02:44:22;;;;;;;9.87;5.10;;;2.50;50.40;;;;;;5075269;28;20705;-89
2021/12/21 02:46:49;;;;;;;13.80;5.77;;;2.60;50.80;;;;;;5076398;28;20481;-89
2021/12/21 02:49:18;;;;;;;9.03;5.10;;;2.70;50.50;;;;;;5075295;28;20451;-89
2021/12/21 02:51:46;;;;;;;10.40;5.70;;;2.80;49.50;;;;;;5090082;28;20478;-91
2021/12/21 02:54:16;;;;;;;10.00;5.20;;;2.80;49.60;;;;;;5098782;28;20458;-89
2021/12/21 02:56:44;;;;;;;6.87;4.63;;;2.80;48.60;;;;;;5096251;28;20459;-90
2021/12/21 02:59:12;;;;;;;10.77;5.50;;;2.80;48.50;;;;;;5086365;28;20461;-90
2021/12/21 03:01:39;;;;;;;11.83;4.80;;;2.80;48.40;;;;;;5081213;28;23493;-87
2021/12/21 03:04:08;;;;;;;5.60;4.63;;;2.80;48.20;;;;;;5077441;28;20487;-91
2021/12/21 03:09:37;;;;;;;9.77;5.37;;;2.80;47.90;;;;;;5073410;28;20810;-89
2021/12/21 03:12:14;;;;;;;7.87;5.57;;;2.70;47.80;;;;;;5068855;28;20586;-89
2021/12/21 03:14:41;;;;;;;16.70;7.00;;;2.70;47.90;;;;;;5091728;28;20797;-90
2021/12/21 03:17:09;;;;;;;10.83;6.07;;;2.70;48.00;;;;;;5052568;28;21029;-90
2021/12/21 03:19:37;;;;;;;12.27;7.70;;;2.70;48.20;;;;;;5065425;28;20458;-89
2021/12/21 03:22:05;;;;;;;13.73;5.73;;;2.70;48.30;;;;;;5068761;28;20874;-90
2021/12/21 03:24:33;;;;;;;9.00;5.90;;;2.70;48.40;;;;;;5094434;28;20705;-91
2021/12/21 03:27:01;;;;;;;9.33;5.90;;;2.60;48.40;;;;;;5069114;28;20889;-91
2021/12/21 03:29:28;;;;;;;14.80;7.43;;;2.60;48.60;;;;;;5051982;28;20451;-89
2021/12/21 03:31:56;;;;;;;9.30;5.90;;;2.60;49.00;;;;;;5078057;28;20487;-89
2021/12/21 03:34:24;;;;;;;9.13;5.57;;;2.60;49.30;;;;;;5074807;28;20447;-89
2021/12/21 03:36:51;;;;;;;9.43;5.07;;;2.50;49.10;;;;;;5054635;28;20468;-89
2021/12/21 03:39:20;;;;;;;8.00;4.50;;;2.50;48.80;;;;;;5078932;28;20462;-89
2021/12/21 03:41:54;;;;;;;13.93;6.37;;;2.60;48.80;;;;;;5063076;28;20591;-91
2021/12/21 03:44:21;;;;;;;9.13;6.60;;;2.60;48.60;;;;;;5063006;28;20543;-89
2021/12/21 03:46:51;;;;;;;7.63;5.70;;;2.60;48.60;;;;;;5075246;28;20460;-90
2021/12/21 03:52:09;;;;;;;31.77;9.23;;;2.60;49.20;;;;;;5058557;27;20466;-91
2021/12/21 03:54:37;;;;;;;25.50;17.87;;;2.50;50.30;;;;;;5074299;28;21083;-89
2021/12/21 03:57:06;;;;;;;25.93;20.60;;;1.70;51.70;;;;;;5094173;28;20443;-89
2021/12/21 03:59:33;;;;;;;15.03;6.97;;;1.40;53.20;;;;;;5076443;28;20508;-89
2021/12/21 04:02:00;;;;;;;11.97;4.57;;;1.60;52.50;;;;;;5062029;28;20478;-90
2021/12/21 04:04:27;;;;;;;6.97;5.37;;;1.80;51.50;;;;;;5077196;28;20459;-89
2021/12/21 04:06:54;;;;;;;5.87;4.33;;;1.90;51.10;;;;;;5063812;28;20455;-89
2021/12/21 04:09:22;;;;;;;17.00;6.27;;;2.00;50.80;;;;;;5058731;28;20443;-90
2021/12/21 04:11:49;;;;;;;10.87;5.80;;;2.10;50.70;;;;;;5091884;28;20483;-88
2021/12/21 04:14:18;;;;;;;17.57;6.90;;;2.10;49.80;;;;;;5048736;28;20460;-89
2021/12/21 04:16:45;;;;;;;7.73;4.23;;;2.20;50.00;;;;;;5095978;27;20455;-91
2021/12/21 04:19:12;;;;;;;10.60;6.47;;;2.30;50.00;;;;;;5084370;28;20800;-90
2021/12/21 04:21:39;;;;;;;11.90;6.43;;;2.30;49.70;;;;;;5070001;28;20474;-87
2021/12/21 04:24:06;;;;;;;8.37;5.60;;;2.40;49.50;;;;;;5085450;28;20448;-89
2021/12/21 04:26:33;;;;;;;9.60;4.70;;;2.40;49.20;;;;;;5061031;28;20457;-91
2021/12/21 04:29:00;;;;;;;8.73;6.10;;;2.40;48.80;;;;;;5077216;28;20447;-89
2021/12/21 04:31:29;;;;;;;9.00;4.60;;;2.40;48.90;;;;;;5094167;28;21000;-91
2021/12/21 04:33:56;;;;;;;10.80;5.53;;;2.40;48.40;;;;;;5096735;28;20798;-90
2021/12/21 04:36:23;;;;;;;12.10;5.33;;;2.40;48.20;;;;;;5058928;28;20447;-89
2021/12/21 04:38:51;;;;;;;13.90;7.50;;;2.40;48.10;;;;;;5073492;28;20459;-90
2021/12/21 04:41:23;;;;;;;13.77;6.07;;;2.30;48.20;;;;;;5056812;28;20833;-90
2021/12/21 04:43:52;;;;;;;9.93;5.83;;;2.30;48.50;;;;;;5076961;28;20463;-90
2021/12/21 04:46:19;;;;;;;11.73;6.00;;;2.30;48.60;;;;;;5050381;28;20451;-90
2021/12/21 04:48:48;;;;;;;12.73;7.20;;;2.30;48.60;;;;;;5059223;28;20456;-89
2021/12/21 04:51:15;;;;;;;13.10;6.80;;;2.30;48.70;;;;;;5097088;28;20992;-87
2021/12/21 04:53:42;;;;;;;10.50;7.63;;;2.30;48.50;;;;;;5068516;28;20454;-89
2021/12/21 04:56:09;;;;;;;13.63;8.33;;;2.30;48.50;;;;;;5058569;28;20469;-88
2021/12/21 04:58:37;;;;;;;13.97;6.03;;;2.30;48.40;;;;;;5070727;28;20444;-89
2021/12/21 05:01:04;;;;;;;10.97;5.97;;;2.30;49.40;;;;;;5094741;27;20453;-91
2021/12/21 05:03:31;;;;;;;69.13;8.97;;;2.20;50.80;;;;;;5064484;28;20459;-89
2021/12/21 05:06:00;;;;;;;28.30;12.20;;;2.20;50.70;;;;;;5092988;27;20449;-89
2021/12/21 05:08:32;;;;;;;104.67;11.90;;;2.20;50.80;;;;;;5076138;28;20471;-90
2021/12/21 05:11:02;;;;;;;49.07;11.90;;;1.80;52.70;;;;;;5072555;28;20478;-90
2021/12/21 05:13:31;;;;;;;13.50;7.17;;;1.50;54.70;;;;;;5080085;27;20463;-90
2021/12/21 05:15:59;;;;;;;34.40;6.47;;;1.60;54.30;;;;;;5079702;28;20459;-91
2021/12/21 05:18:27;;;;;;;12.30;7.50;;;1.70;53.80;;;;;;5086628;28;20462;-89
2021/12/21 05:20:54;;;;;;;14.37;8.20;;;1.90;53.50;;;;;;5091587;28;20465;-85
2021/12/21 05:23:23;;;;;;;18.50;7.33;;;1.80;53.20;;;;;;5057365;28;20481;-89
2021/12/21 05:25:50;;;;;;;26.37;9.30;;;1.70;53.20;;;;;;5051045;28;20454;-88
2021/12/21 05:28:17;;;;;;;13.77;8.47;;;1.10;53.50;;;;;;5061645;28;20455;-88
2021/12/21 05:30:45;;;;;;;26.30;6.80;;;0.60;54.50;;;;;;5052727;28;20474;-88
2021/12/21 05:33:13;;;;;;;12.43;6.43;;;0.40;55.10;;;;;;5070576;28;21052;-89
2021/12/21 05:35:40;;;;;;;15.50;7.00;;;0.90;54.70;;;;;;5080019;28;20454;-89
2021/12/21 05:38:09;;;;;;;13.77;7.07;;;1.20;53.30;;;;;;5054108;28;20461;-88
2021/12/21 05:40:40;;;;;;;9.10;6.70;;;1.40;52.40;;;;;;5039113;28;20453;-89
2021/12/21 05:43:10;;;;;;;8.13;6.07;;;1.50;51.50;;;;;;5072333;28;20485;-88
2021/12/21 05:45:37;;;;;;;14.23;5.43;;;1.40;51.10;;;;;;5090129;28;20957;-88
2021/12/21 05:48:05;;;;;;;17.53;7.53;;;1.10;51.30;;;;;;5071220;28;20454;-90
2021/12/21 05:50:32;;;;;;;18.37;6.23;;;1.10;51.90;;;;;;5057395;28;20451;-88
2021/12/21 05:52:59;;;;;;;7.83;5.23;;;1.30;51.30;;;;;;5067690;28;20812;-88
2021/12/21 05:55:34;;;;;;;22.00;4.97;;;1.50;50.70;;;;;;5088664;28;20459;-90
2021/12/21 05:58:03;;;;;;;7.90;4.57;;;1.50;50.40;;;;;;5077499;28;20451;-90
2021/12/21 06:00:34;;;;;;;8.93;4.90;;;1.60;50.00;;;;;;5061595;28;20495;-90
2021/12/21 06:03:01;;;;;;;14.67;6.50;;;1.70;49.80;;;;;;5053939;28;20901;-90
2021/12/21 06:05:29;;;;;;;13.17;5.43;;;1.80;49.60;;;;;;5065152;28;20487;-88
2021/12/21 06:07:56;;;;;;;8.77;5.30;;;1.90;49.50;;;;;;5074393;27;20453;-90
2021/12/21 06:10:28;;;;;;;12.30;5.67;;;1.90;48.80;;;;;;5066227;28;20469;-89
2021/12/21 06:13:16;;;;;;;16.50;5.90;;;1.90;48.40;;;;;;5071632;27;20811;-89
2021/12/21 06:15:55;;;;;;;7.80;5.53;;;1.90;48.00;;;;;;5050056;28;21021;-89
2021/12/21 06:25:00;;;;;;;21.27;8.70;;;1.80;49.50;;;;;;5066168;28;20442;-87
2021/12/21 06:26:58;;;;;;;11.80;6.67;;;1.80;50.40;;;;;;5078299;28;20535;-89
2021/12/21 06:29:26;;;;;;;13.07;7.10;;;1.60;51.20;;;;;;5063769;28;20450;-89
2021/12/21 06:31:55;;;;;;;15.40;7.90;;;1.70;51.70;;;;;;5078304;28;20470;-89
2021/12/21 06:34:22;;;;;;;13.93;8.90;;;1.70;52.10;;;;;;5062452;28;20478;-88
2021/12/21 06:36:49;;;;;;;31.40;7.37;;;1.80;52.30;;;;;;5058788;28;20485;-89
2021/12/21 06:39:17;;;;;;;40.13;9.83;;;1.60;53.10;;;;;;5082735;28;20475;-89
2021/12/21 06:41:45;;;;;;;26.73;11.20;;;1.30;53.40;;;;;;5081641;28;20477;-88
2021/12/21 06:44:14;;;;;;;15.70;9.50;;;1.00;54.40;;;;;;5083340;28;20463;-87
2021/12/21 06:46:51;;;;;;;13.70;8.07;;;1.20;53.70;;;;;;5090416;28;20470;-90
2021/12/21 06:52:05;;;;;;;17.03;8.40;;;1.60;52.50;;;;;;5055408;28;20498;-89
2021/12/21 06:54:32;;;;;;;14.37;9.47;;;1.70;51.90;;;;;;5046426;28;20449;-87
2021/12/21 06:56:59;;;;;;;13.77;8.20;;;1.80;51.30;;;;;;5094611;28;20458;-91
2021/12/21 06:59:26;;;;;;;8.47;5.77;;;1.80;50.90;;;;;;5061524;28;20447;-90
2021/12/21 07:01:54;;;;;;;11.87;6.53;;;1.70;50.60;;;;;;5079004;28;20488;-89
2021/12/21 07:04:23;;;;;;;11.33;7.50;;;1.70;50.80;;;;;;5099438;28;20455;-90
2021/12/21 07:06:54;;;;;;;19.13;8.23;;;1.60;50.50;;;;;;5070809;28;20952;-91
2021/12/21 07:09:29;;;;;;;6.70;4.40;;;1.60;50.50;;;;;;5064926;28;20457;-90
2021/12/21 07:12:13;;;;;;;8.77;6.00;;;1.70;50.10;;;;;;5064854;28;20494;-90
2021/12/21 07:20:11;;;;;;;13.27;7.20;;;1.40;49.30;;;;;;5077609;28;20446;-88
2021/12/21 07:22:38;;;;;;;10.40;6.70;;;1.50;49.20;;;;;;5063357;28;20482;-92
2021/12/21 07:25:06;;;;;;;12.90;8.17;;;1.50;48.80;;;;;;5078682;28;20459;-88
2021/12/21 07:27:33;;;;;;;11.43;6.40;;;1.50;48.90;;;;;;5072984;28;20447;-88
2021/12/21 07:30:00;;;;;;;20.97;7.33;;;1.60;49.10;;;;;;5053529;28;20535;-92
2021/12/21 07:32:27;;;;;;;11.93;6.97;;;1.60;49.50;;;;;;5065500;28;20470;-92
2021/12/21 07:34:53;;;;;;;8.30;6.10;;;1.60;49.80;;;;;;5062653;28;20974;-90
2021/12/21 07:37:22;;;;;;;13.50;8.93;;;1.60;49.90;;;;;;5064508;28;20452;-87
2021/12/21 07:39:49;;;;;;;16.87;8.47;;;1.60;50.10;;;;;;5075471;28;20459;-89
2021/12/21 07:42:16;;;;;;;23.47;10.97;;;1.60;50.20;;;;;;5094763;28;20466;-89
2021/12/21 07:44:43;;;;;;;16.73;9.83;;;1.50;50.20;;;;;;5049929;28;20454;-89
2021/12/21 07:47:09;;;;;;;44.23;14.70;;;1.50;50.50;;;;;;5067394;28;20466;-90
2021/12/21 07:49:37;;;;;;;31.90;13.90;;;1.10;51.40;;;;;;5099656;28;20465;-90
2021/12/21 07:52:07;;;;;;;39.90;16.77;;;0.90;51.80;;;;;;5079825;28;20467;-88
2021/12/21 07:54:35;;;;;;;38.30;17.00;;;0.90;51.80;;;;;;5063821;28;20478;-89
2021/12/21 07:57:02;;;;;;;21.00;13.73;;;0.90;52.00;;;;;;5050306;27;20452;-88
2021/12/21 07:59:30;;;;;;;30.93;15.17;;;0.90;51.70;;;;;;5103572;27;20458;-89
2021/12/21 08:01:57;;;;;;;26.60;15.13;;;0.90;51.70;;;;;;5062895;28;20462;-88
2021/12/21 08:04:27;;;;;;;31.60;15.77;;;1.00;51.70;;;;;;5067271;28;20451;-89
2021/12/21 08:06:57;;;;;;;31.93;16.53;;;1.00;51.30;;;;;;5070803;28;20816;-89
2021/12/21 08:09:25;;;;;;;94.10;34.20;;;1.10;51.00;;;;;;5064996;28;20463;-89
2021/12/21 08:12:14;;;;;;;103.80;37.97;;;1.10;51.30;;;;;;5100733;27;20477;-89
2021/12/21 08:14:41;;;;;;;65.47;26.00;;;1.20;51.20;;;;;;5068786;28;20508;-89
2021/12/21 08:17:08;;;;;;;42.30;16.90;;;1.30;51.20;;;;;;5046973;28;20435;-90
2021/12/21 08:19:35;;;;;;;39.03;21.10;;;1.40;50.80;;;;;;5066060;28;20458;-89
2021/12/21 08:22:02;;;;;;;33.70;14.40;;;1.40;50.10;;;;;;5099707;28;21100;-90
2021/12/21 08:24:30;;;;;;;25.80;11.97;;;1.50;49.90;;;;;;5049020;28;20512;-90
2021/12/21 08:26:59;;;;;;;21.63;12.37;;;1.50;50.00;;;;;;5076767;28;20457;-89
2021/12/21 08:29:26;;;;;;;21.43;12.17;;;1.60;50.00;;;;;;5086701;27;20451;-92
2021/12/21 08:31:54;;;;;;;20.57;11.50;;;1.60;49.80;;;;;;5083561;27;20464;-90
2021/12/21 08:34:22;;;;;;;27.70;11.90;;;1.70;49.80;;;;;;5103468;27;20457;-90
2021/12/21 08:36:49;;;;;;;27.17;11.70;;;1.70;50.30;;;;;;5084162;28;20978;-90
2021/12/21 08:39:17;;;;;;;21.33;11.30;;;1.80;50.50;;;;;;5101424;27;20451;-89
2021/12/21 08:41:45;;;;;;;22.07;11.10;;;1.80;50.30;;;;;;5066402;28;20550;-90
2021/12/21 08:44:20;;;;;;;18.93;10.40;;;1.80;50.20;;;;;;5084236;28;20458;-90
2021/12/21 08:46:47;;;;;;;28.00;12.20;;;1.80;50.60;;;;;;5072414;27;20447;-89
2021/12/21 08:49:14;;;;;;;20.73;10.67;;;1.80;51.20;;;;;;5052991;27;20450;-87
2021/12/21 08:51:41;;;;;;;17.57;10.73;;;1.90;51.30;;;;;;5081029;28;20488;-87
2021/12/21 08:54:08;;;;;;;18.47;9.47;;;1.90;50.90;;;;;;5083521;28;20461;-89
2021/12/21 08:56:35;;;;;;;24.67;11.30;;;1.90;50.60;;;;;;5081931;28;20451;-90
2021/12/21 08:59:02;;;;;;;15.37;10.03;;;2.00;50.50;;;;;;5065142;28;20454;-92
2021/12/21 09:01:30;;;;;;;22.20;11.90;;;2.00;50.20;;;;;;5069712;28;20482;-91
2021/12/21 09:03:57;;;;;;;25.57;14.60;;;2.00;49.90;;;;;;5086005;28;20464;-89
2021/12/21 09:06:25;;;;;;;27.77;15.57;;;2.00;49.70;;;;;;5078761;28;21027;-89
2021/12/21 09:08:52;;;;;;;34.27;19.67;;;2.00;49.60;;;;;;5074796;28;20447;-93
2021/12/21 09:11:19;;;;;;;48.90;21.03;;;2.00;49.70;;;;;;5067621;28;20476;-91
2021/12/21 09:13:46;;;;;;;39.00;18.60;;;2.00;49.40;;;;;;5080075;28;20498;-91
2021/12/21 09:16:13;;;;;;;35.20;17.70;;;2.00;49.30;;;;;;5078256;28;20905;-91
2021/12/21 09:18:41;;;;;;;33.23;16.27;;;2.00;49.30;;;;;;5073569;28;20455;-88
2021/12/21 09:21:08;;;;;;;42.13;19.20;;;2.00;49.40;;;;;;5058503;28;20447;-90
2021/12/21 09:23:35;;;;;;;34.40;18.80;;;1.90;49.50;;;;;;5079447;28;20466;-91
2021/12/21 09:26:02;;;;;;;28.07;15.77;;;1.90;49.70;;;;;;5092425;27;20462;-92
2021/12/21 09:28:29;;;;;;;34.83;15.87;;;1.90;49.70;;;;;;5065361;28;20745;-91
2021/12/21 09:30:56;;;;;;;31.10;17.10;;;2.00;49.70;;;;;;5083985;28;20981;-91
2021/12/21 09:33:23;;;;;;;30.70;15.50;;;2.00;50.00;;;;;;5070436;28;20565;-91
2021/12/21 09:35:52;;;;;;;34.60;16.97;;;2.00;49.20;;;;;;5082008;28;20537;-90
2021/12/21 09:38:20;;;;;;;32.77;17.13;;;2.00;49.30;;;;;;5065815;28;20503;-90
2021/12/21 09:40:47;;;;;;;26.57;14.50;;;2.00;49.50;;;;;;5086996;28;20443;-91
2021/12/21 09:43:13;;;;;;;26.40;15.67;;;2.00;49.60;;;;;;5084772;27;20463;-91
2021/12/21 09:45:41;;;;;;;20.93;12.27;;;2.00;49.70;;;;;;5085885;28;20447;-89
2021/12/21 09:48:08;;;;;;;20.17;11.80;;;2.10;49.70;;;;;;5065623;28;20447;-91
2021/12/21 09:50:36;;;;;;;18.70;10.43;;;2.10;49.70;;;;;;5087186;28;20458;-90
2021/12/21 09:53:05;;;;;;;9.87;7.00;;;2.10;50.40;;;;;;5067175;28;20550;-91
2021/12/21 09:55:32;;;;;;;12.00;7.50;;;2.10;49.80;;;;;;5078700;28;20835;-90
2021/12/21 09:57:59;;;;;;;16.10;8.83;;;2.00;50.00;;;;;;5104570;28;20507;-92
2021/12/21 10:00:29;;;;;;;17.03;9.20;;;2.10;50.40;;;;;;5069110;27;20443;-90
2021/12/21 10:03:02;;;;;;;13.23;9.10;;;2.10;50.30;;;;;;5082240;28;20535;-90
2021/12/21 10:05:30;;;;;;;16.27;10.00;;;2.10;50.30;;;;;;5050121;28;20447;-91
2021/12/21 10:07:59;;;;;;;20.67;12.67;;;2.20;50.40;;;;;;5070195;28;20939;-92
2021/12/21 10:10:32;;;;;;;21.33;9.83;;;2.20;50.50;;;;;;5064965;28;20463;-88
2021/12/21 10:13:08;;;;;;;13.10;8.00;;;2.20;50.50;;;;;;5067691;28;20466;-91
2021/12/21 10:15:39;;;;;;;16.80;9.60;;;2.30;50.60;;;;;;5067837;28;20535;-90
2021/12/21 10:18:06;;;;;;;15.57;6.40;;;2.30;50.80;;;;;;5070528;28;20908;-92
2021/12/21 10:20:36;;;;;;;11.03;5.97;;;2.30;50.80;;;;;;5054431;28;20458;-88
2021/12/21 10:23:13;;;;;;;17.50;8.23;;;2.40;51.10;;;;;;5087021;28;20477;-90
2021/12/21 10:25:44;;;;;;;15.80;7.10;;;2.40;51.20;;;;;;5079923;28;20960;-89
2021/12/21 10:28:11;;;;;;;14.47;8.00;;;2.50;51.10;;;;;;5082022;28;20446;-90
2021/12/21 10:30:50;;;;;;;9.87;6.27;;;2.50;51.20;;;;;;5083761;28;20462;-90
2021/12/21 10:33:17;;;;;;;10.63;6.53;;;2.50;51.40;;;;;;5062915;28;20476;-92
2021/12/21 10:35:44;;;;;;;9.70;6.87;;;2.50;51.70;;;;;;5072343;28;20475;-90
2021/12/21 10:38:11;;;;;;;11.27;5.30;;;2.60;51.90;;;;;;5099955;28;20452;-90
2021/12/21 10:40:40;;;;;;;7.80;4.40;;;2.60;51.80;;;;;;5061472;28;20448;-89
2021/12/21 10:43:10;;;;;;;10.97;5.60;;;2.70;51.70;;;;;;5067909;28;20459;-88
2021/12/21 10:45:39;;;;;;;8.77;4.90;;;2.70;51.70;;;;;;5104674;28;20459;-90
2021/12/21 10:48:08;;;;;;;7.53;4.37;;;2.70;51.90;;;;;;5090808;28;20945;-90
2021/12/21 10:50:36;;;;;;;8.03;5.30;;;2.70;52.00;;;;;;5056629;28;20824;-91
2021/12/21 10:53:04;;;;;;;12.10;6.73;;;2.70;52.10;;;;;;5102079;28;20488;-90
2021/12/21 10:55:34;;;;;;;16.87;8.50;;;2.70;52.10;;;;;;5068700;28;20459;-90
2021/12/21 10:58:11;;;;;;;26.53;9.90;;;2.80;52.50;;;;;;5063819;28;20483;-90
2021/12/21 11:00:40;;;;;;;16.93;9.83;;;2.80;52.90;;;;;;5058671;28;20447;-90
2021/12/21 11:03:07;;;;;;;33.37;12.00;;;2.90;53.00;;;;;;5082198;28;20451;-90
2021/12/21 11:05:35;;;;;;;15.63;8.47;;;2.90;52.90;;;;;;5086158;28;20458;-89
2021/12/21 11:08:06;;;;;;;12.70;6.90;;;2.90;53.30;;;;;;5063292;28;20462;-90
2021/12/21 11:10:36;;;;;;;13.70;5.90;;;3.00;52.60;;;;;;5068424;28;20940;-90
2021/12/21 11:13:06;;;;;;;12.53;6.27;;;2.90;52.40;;;;;;5085472;28;20465;-90
2021/12/21 11:15:36;;;;;;;11.17;5.57;;;3.00;52.60;;;;;;5073481;28;20522;-89
2021/12/21 11:18:06;;;;;;;14.30;6.10;;;3.00;52.70;;;;;;5072335;28;20463;-90
2021/12/21 11:20:35;;;;;;;8.93;5.30;;;3.00;52.90;;;;;;5068398;28;20452;-90
2021/12/21 11:23:03;;;;;;;9.33;5.73;;;2.90;53.30;;;;;;5075103;28;20476;-91
2021/12/21 11:25:33;;;;;;;10.93;6.27;;;2.90;53.50;;;;;;5097782;27;21358;-89
2021/12/21 11:28:01;;;;;;;9.63;5.67;;;3.00;53.70;;;;;;5062663;28;20443;-92
2021/12/21 11:30:28;;;;;;;14.30;6.27;;;2.90;53.80;;;;;;5060963;28;20455;-88
2021/12/21 11:32:57;;;;;;;8.47;5.33;;;2.90;54.00;;;;;;5051752;28;20470;-89
2021/12/21 11:38:13;;;;;;;6.43;4.50;;;2.90;55.20;;;;;;5059879;28;20843;-89
2021/12/21 11:40:43;;;;;;;6.53;4.57;;;2.90;55.20;;;;;;5078865;28;21101;-89
2021/12/21 11:43:17;;;;;;;9.27;6.00;;;3.00;55.10;;;;;;5081858;28;20496;-89
2021/12/21 11:45:52;;;;;;;16.07;7.77;;;3.10;55.10;;;;;;5085689;28;20444;-89
2021/12/21 11:48:29;;;;;;;8.37;6.90;;;3.10;55.10;;;;;;5049684;28;20874;-90
2021/12/21 11:51:03;;;;;;;15.70;7.90;;;3.20;55.30;;;;;;5048427;28;20536;-90
2021/12/21 11:53:30;;;;;;;9.53;4.83;;;3.20;55.20;;;;;;5076449;28;21159;-89
2021/12/21 11:55:57;;;;;;;9.40;4.40;;;3.30;55.40;;;;;;5067149;28;20438;-89
2021/12/21 11:58:27;;;;;;;22.10;6.73;;;3.40;55.40;;;;;;5097670;28;20467;-89
2021/12/21 12:00:56;;;;;;;10.10;5.07;;;3.50;55.50;;;;;;5062795;28;20457;-89
2021/12/21 12:03:28;;;;;;;5.40;4.90;;;3.60;55.50;;;;;;5093722;28;20451;-91
2021/12/21 12:05:58;;;;;;;7.70;4.67;;;3.70;55.60;;;;;;5077164;28;20453;-89
2021/12/21 12:08:27;;;;;;;11.37;5.93;;;3.70;55.60;;;;;;5084543;27;20458;-86
2021/12/21 12:10:58;;;;;;;9.73;5.00;;;3.80;55.50;;;;;;5064686;28;20953;-88
2021/12/21 12:13:30;;;;;;;15.93;6.70;;;3.80;55.50;;;;;;5063110;28;20462;-88
2021/12/21 12:16:00;;;;;;;8.17;5.53;;;3.80;55.60;;;;;;5084180;28;20551;-88
2021/12/21 12:18:34;;;;;;;8.20;6.23;;;3.90;56.00;;;;;;5080503;28;20462;-88
2021/12/21 12:21:15;;;;;;;7.53;6.17;;;4.00;56.10;;;;;;5066540;28;20454;-89
2021/12/21 12:23:48;;;;;;;12.53;5.90;;;4.10;56.10;;;;;;5073643;28;20459;-88
2021/12/21 12:26:25;;;;;;;8.30;5.57;;;4.20;55.90;;;;;;5094774;28;20440;-88
2021/12/21 12:28:52;;;;;;;9.87;6.07;;;4.40;55.80;;;;;;5079090;28;20985;-88
2021/12/21 12:31:34;;;;;;;8.50;5.20;;;4.50;55.50;;;;;;5059787;28;20459;-88
2021/12/21 12:34:02;;;;;;;8.40;5.53;;;4.60;55.70;;;;;;5097748;28;20485;-88
2021/12/21 12:36:38;;;;;;;15.73;7.63;;;4.70;55.90;;;;;;5078923;28;20464;-88
2021/12/21 12:39:07;;;;;;;11.97;7.20;;;5.00;55.80;;;;;;5086277;28;21150;-89
2021/12/21 12:41:45;;;;;;;10.50;6.80;;;5.20;55.30;;;;;;5068980;28;20483;-87
2021/12/21 12:44:21;;;;;;;10.80;6.40;;;5.50;54.90;;;;;;5084845;28;20847;-90
2021/12/21 12:46:54;;;;;;;17.90;7.20;;;5.70;54.20;;;;;;5097755;27;20461;-88
2021/12/21 12:49:28;;;;;;;8.87;6.37;;;5.70;54.10;;;;;;5078120;28;20512;-86
2021/12/21 12:52:11;;;;;;;13.30;7.10;;;5.80;54.10;;;;;;5077743;28;21288;-90
2021/12/21 12:54:48;;;;;;;12.40;8.50;;;6.00;54.10;;;;;;5076646;28;21053;-86
2021/12/21 12:57:34;;;;;;;9.90;5.33;;;6.20;53.70;;;;;;5046953;28;20493;-88
2021/12/21 13:00:12;;;;;;;13.80;6.93;;;6.40;53.20;;;;;;5062718;28;20444;-88
2021/12/21 13:02:39;;;;;;;11.50;5.40;;;6.50;52.90;;;;;;5084100;27;20485;-88
2021/12/21 13:05:11;;;;;;;8.63;5.40;;;6.80;52.70;;;;;;5096282;27;20485;-87
2021/12/21 13:07:38;;;;;;;8.30;5.30;;;7.00;52.20;;;;;;5076823;28;20460;-87
2021/12/21 13:10:08;;;;;;;6.57;5.10;;;7.30;51.60;;;;;;5078896;28;20498;-87
2021/12/21 13:12:35;;;;;;;12.73;4.30;;;7.40;50.90;;;;;;5093038;28;21399;-87
2021/12/21 13:15:03;;;;;;;6.63;4.97;;;7.50;50.40;;;;;;5068601;28;20444;-87
2021/12/21 13:17:30;;;;;;;11.70;4.47;;;7.50;50.20;;;;;;5094577;28;20815;-87
2021/12/21 13:19:57;;;;;;;11.47;5.47;;;7.50;50.00;;;;;;5052316;27;21150;-88
2021/12/21 13:22:27;;;;;;;11.13;5.60;;;7.50;50.00;;;;;;5072990;28;20826;-88
2021/12/21 13:24:55;;;;;;;7.50;4.70;;;7.50;50.10;;;;;;5091384;28;20449;-89
2021/12/21 13:27:24;;;;;;;7.10;4.37;;;7.50;50.00;;;;;;5098356;28;20478;-88
2021/12/21 13:29:53;;;;;;;13.13;5.57;;;7.30;50.00;;;;;;5078430;28;20436;-87